sensor_id;sensor_type;location;lat;lon;timestamp;P1;durP1;ratioP1;P2;durP2;ratioP2
71869;SDS011;59739;47.696;11.746;2023-04-25T00:00:00;2.13;;;1.92;;
71869;SDS011;59739;47.696;11.746;2023-04-25T00:02:26;2.75;;;2.00;;
71869;SDS011;59739;47.696;11.746;2023-04-25T00:04:53;3.78;;;2.40;;
71869;SDS011;59739;47.696;11.746;2023-04-25T00:07:22;2.90;;;2.10;;
71869;SDS011;59739;47.696;11.746;2023-04-25T00:09:47;2.90;;;2.15;;
71869;SDS011;59739;47.696;11.746;2023-04-25T00:12:13;4.20;;;2.33;;
71869;SDS011;59739;47.696;11.746;2023-04-25T00:14:40;2.25;;;2.05;;
71869;SDS011;59739;47.696;11.746;2023-04-25T00:17:06;2.05;;;1.85;;
71869;SDS011;59739;47.696;11.746;2023-04-25T00:19:32;2.95;;;2.45;;
71869;SDS011;59739;47.696;11.746;2023-04-25T00:21:59;7.20;;;2.53;;
71869;SDS011;59739;47.696;11.746;2023-04-25T00:24:25;3.22;;;2.38;;
71869;SDS011;59739;47.696;11.746;2023-04-25T00:26:51;3.40;;;2.42;;
71869;SDS011;59739;47.696;11.746;2023-04-25T00:29:18;4.22;;;2.53;;
71869;SDS011;59739;47.696;11.746;2023-04-25T00:31:44;3.10;;;2.20;;
71869;SDS011;59739;47.696;11.746;2023-04-25T00:34:10;3.33;;;2.20;;
71869;SDS011;59739;47.696;11.746;2023-04-25T00:36:36;4.82;;;2.20;;
71869;SDS011;59739;47.696;11.746;2023-04-25T00:39:02;2.20;;;2.00;;
71869;SDS011;59739;47.696;11.746;2023-04-25T00:41:29;2.50;;;2.00;;
71869;SDS011;59739;47.696;11.746;2023-04-25T00:43:55;3.70;;;2.22;;
71869;SDS011;59739;47.696;11.746;2023-04-25T00:46:22;2.72;;;2.13;;
71869;SDS011;59739;47.696;11.746;2023-04-25T00:48:49;3.13;;;2.40;;
71869;SDS011;59739;47.696;11.746;2023-04-25T00:51:24;2.92;;;2.20;;
71869;SDS011;59739;47.696;11.746;2023-04-25T00:53:53;2.33;;;1.85;;
71869;SDS011;59739;47.696;11.746;2023-04-25T00:56:19;4.13;;;2.50;;
71869;SDS011;59739;47.696;11.746;2023-04-25T00:58:46;2.30;;;2.08;;
71869;SDS011;59739;47.696;11.746;2023-04-25T01:01:15;3.13;;;2.72;;
71869;SDS011;59739;47.696;11.746;2023-04-25T01:03:44;3.15;;;2.22;;
71869;SDS011;59739;47.696;11.746;2023-04-25T01:06:12;4.47;;;2.40;;
71869;SDS011;59739;47.696;11.746;2023-04-25T01:08:38;3.45;;;2.53;;
71869;SDS011;59739;47.696;11.746;2023-04-25T01:11:05;2.83;;;2.40;;
71869;SDS011;59739;47.696;11.746;2023-04-25T01:13:32;4.15;;;2.63;;
71869;SDS011;59739;47.696;11.746;2023-04-25T01:15:59;2.78;;;2.13;;
71869;SDS011;59739;47.696;11.746;2023-04-25T01:18:27;3.28;;;2.50;;
71869;SDS011;59739;47.696;11.746;2023-04-25T01:20:53;3.30;;;2.70;;
71869;SDS011;59739;47.696;11.746;2023-04-25T01:23:21;2.97;;;2.45;;
71869;SDS011;59739;47.696;11.746;2023-04-25T01:25:49;3.10;;;2.45;;
71869;SDS011;59739;47.696;11.746;2023-04-25T01:28:15;2.70;;;2.42;;
71869;SDS011;59739;47.696;11.746;2023-04-25T01:30:42;3.00;;;2.40;;
71869;SDS011;59739;47.696;11.746;2023-04-25T01:33:08;3.85;;;2.53;;
71869;SDS011;59739;47.696;11.746;2023-04-25T01:35:35;2.60;;;2.35;;
71869;SDS011;59739;47.696;11.746;2023-04-25T01:38:01;2.30;;;2.08;;
71869;SDS011;59739;47.696;11.746;2023-04-25T01:40:27;3.90;;;2.40;;
71869;SDS011;59739;47.696;11.746;2023-04-25T01:42:53;2.10;;;1.90;;
71869;SDS011;59739;47.696;11.746;2023-04-25T01:45:20;2.35;;;2.10;;
71869;SDS011;59739;47.696;11.746;2023-04-25T01:47:47;3.25;;;2.45;;
71869;SDS011;59739;47.696;11.746;2023-04-25T01:50:14;3.80;;;2.30;;
71869;SDS011;59739;47.696;11.746;2023-04-25T01:52:44;2.92;;;2.08;;
71869;SDS011;59739;47.696;11.746;2023-04-25T01:55:11;2.35;;;1.92;;
71869;SDS011;59739;47.696;11.746;2023-04-25T01:57:41;4.30;;;2.35;;
71869;SDS011;59739;47.696;11.746;2023-04-25T02:00:07;2.53;;;1.90;;
71869;SDS011;59739;47.696;11.746;2023-04-25T02:02:37;3.60;;;2.42;;
71869;SDS011;59739;47.696;11.746;2023-04-25T02:05:07;2.67;;;2.33;;
71869;SDS011;59739;47.696;11.746;2023-04-25T02:07:36;3.13;;;2.80;;
71869;SDS011;59739;47.696;11.746;2023-04-25T02:10:03;2.50;;;1.92;;
71869;SDS011;59739;47.696;11.746;2023-04-25T02:12:38;2.28;;;2.08;;
71869;SDS011;59739;47.696;11.746;2023-04-25T02:15:18;3.28;;;1.98;;
71869;SDS011;59739;47.696;11.746;2023-04-25T02:17:53;3.28;;;2.28;;
71869;SDS011;59739;47.696;11.746;2023-04-25T02:20:20;2.17;;;1.98;;
71869;SDS011;59739;47.696;11.746;2023-04-25T02:22:47;3.17;;;1.85;;
71869;SDS011;59739;47.696;11.746;2023-04-25T02:25:13;4.45;;;2.10;;
71869;SDS011;59739;47.696;11.746;2023-04-25T02:27:41;3.92;;;1.80;;
71869;SDS011;59739;47.696;11.746;2023-04-25T02:30:08;4.00;;;1.80;;
71869;SDS011;59739;47.696;11.746;2023-04-25T02:32:35;3.30;;;2.00;;
71869;SDS011;59739;47.696;11.746;2023-04-25T02:35:01;4.45;;;1.90;;
71869;SDS011;59739;47.696;11.746;2023-04-25T02:37:31;3.65;;;1.85;;
71869;SDS011;59739;47.696;11.746;2023-04-25T02:39:58;4.93;;;2.10;;
71869;SDS011;59739;47.696;11.746;2023-04-25T02:42:25;3.08;;;2.30;;
71869;SDS011;59739;47.696;11.746;2023-04-25T02:44:52;2.63;;;2.00;;
71869;SDS011;59739;47.696;11.746;2023-04-25T02:47:19;3.15;;;2.00;;
71869;SDS011;59739;47.696;11.746;2023-04-25T02:49:45;3.78;;;2.08;;
71869;SDS011;59739;47.696;11.746;2023-04-25T02:52:11;4.20;;;2.42;;
71869;SDS011;59739;47.696;11.746;2023-04-25T02:54:39;6.07;;;2.00;;
71869;SDS011;59739;47.696;11.746;2023-04-25T02:57:06;2.20;;;1.77;;
71869;SDS011;59739;47.696;11.746;2023-04-25T02:59:35;3.15;;;1.75;;
71869;SDS011;59739;47.696;11.746;2023-04-25T03:02:01;2.30;;;1.70;;
71869;SDS011;59739;47.696;11.746;2023-04-25T03:04:28;2.40;;;1.73;;
71869;SDS011;59739;47.696;11.746;2023-04-25T03:06:54;3.13;;;2.28;;
71869;SDS011;59739;47.696;11.746;2023-04-25T03:09:20;2.25;;;1.90;;
71869;SDS011;59739;47.696;11.746;2023-04-25T03:11:47;2.95;;;1.95;;
71869;SDS011;59739;47.696;11.746;2023-04-25T03:14:13;2.70;;;2.22;;
71869;SDS011;59739;47.696;11.746;2023-04-25T03:16:39;2.55;;;2.00;;
71869;SDS011;59739;47.696;11.746;2023-04-25T03:19:05;3.58;;;1.85;;
71869;SDS011;59739;47.696;11.746;2023-04-25T03:21:32;3.55;;;1.90;;
71869;SDS011;59739;47.696;11.746;2023-04-25T03:24:00;3.20;;;1.83;;
71869;SDS011;59739;47.696;11.746;2023-04-25T03:26:28;3.00;;;1.85;;
71869;SDS011;59739;47.696;11.746;2023-04-25T03:28:55;2.10;;;1.90;;
71869;SDS011;59739;47.696;11.746;2023-04-25T03:31:21;6.60;;;2.10;;
71869;SDS011;59739;47.696;11.746;2023-04-25T03:33:48;3.95;;;1.90;;
71869;SDS011;59739;47.696;11.746;2023-04-25T03:36:15;4.10;;;2.17;;
71869;SDS011;59739;47.696;11.746;2023-04-25T03:38:41;3.90;;;1.92;;
71869;SDS011;59739;47.696;11.746;2023-04-25T03:41:08;3.78;;;2.20;;
71869;SDS011;59739;47.696;11.746;2023-04-25T03:43:39;2.55;;;2.22;;
71869;SDS011;59739;47.696;11.746;2023-04-25T03:46:09;2.25;;;1.90;;
71869;SDS011;59739;47.696;11.746;2023-04-25T03:48:36;2.15;;;1.80;;
71869;SDS011;59739;47.696;11.746;2023-04-25T03:51:02;2.42;;;2.22;;
71869;SDS011;59739;47.696;11.746;2023-04-25T03:53:30;3.72;;;2.30;;
71869;SDS011;59739;47.696;11.746;2023-04-25T03:56:31;4.57;;;2.47;;
71869;SDS011;59739;47.696;11.746;2023-04-25T03:59:04;3.35;;;2.40;;
71869;SDS011;59739;47.696;11.746;2023-04-25T04:01:30;2.85;;;2.00;;
71869;SDS011;59739;47.696;11.746;2023-04-25T04:03:57;5.15;;;2.05;;
71869;SDS011;59739;47.696;11.746;2023-04-25T04:06:24;4.80;;;2.67;;
71869;SDS011;59739;47.696;11.746;2023-04-25T04:08:58;2.42;;;2.22;;
71869;SDS011;59739;47.696;11.746;2023-04-25T04:11:24;2.42;;;2.05;;
71869;SDS011;59739;47.696;11.746;2023-04-25T04:13:50;3.38;;;2.25;;
71869;SDS011;59739;47.696;11.746;2023-04-25T04:16:16;3.53;;;2.40;;
71869;SDS011;59739;47.696;11.746;2023-04-25T04:18:43;4.93;;;2.95;;
71869;SDS011;59739;47.696;11.746;2023-04-25T04:21:10;2.63;;;2.20;;
71869;SDS011;59739;47.696;11.746;2023-04-25T04:23:39;3.42;;;2.63;;
71869;SDS011;59739;47.696;11.746;2023-04-25T04:26:07;4.63;;;2.63;;
71869;SDS011;59739;47.696;11.746;2023-04-25T04:28:50;3.60;;;2.83;;
71869;SDS011;59739;47.696;11.746;2023-04-25T04:31:27;4.32;;;2.72;;
71869;SDS011;59739;47.696;11.746;2023-04-25T04:33:53;4.40;;;2.90;;
71869;SDS011;59739;47.696;11.746;2023-04-25T04:36:19;5.60;;;3.60;;
71869;SDS011;59739;47.696;11.746;2023-04-25T04:38:47;8.35;;;5.57;;
71869;SDS011;59739;47.696;11.746;2023-04-25T04:41:22;7.18;;;5.38;;
71869;SDS011;59739;47.696;11.746;2023-04-25T04:43:53;8.73;;;5.00;;
71869;SDS011;59739;47.696;11.746;2023-04-25T04:46:39;4.75;;;3.10;;
71869;SDS011;59739;47.696;11.746;2023-04-25T04:49:16;7.45;;;2.88;;
71869;SDS011;59739;47.696;11.746;2023-04-25T04:52:01;3.65;;;2.75;;
71869;SDS011;59739;47.696;11.746;2023-04-25T04:54:45;3.10;;;2.47;;
71869;SDS011;59739;47.696;11.746;2023-04-25T04:57:15;5.57;;;2.55;;
71869;SDS011;59739;47.696;11.746;2023-04-25T05:00:17;4.15;;;2.33;;
71869;SDS011;59739;47.696;11.746;2023-04-25T05:03:10;4.90;;;2.72;;
71869;SDS011;59739;47.696;11.746;2023-04-25T05:05:49;5.30;;;3.72;;
71869;SDS011;59739;47.696;11.746;2023-04-25T05:08:37;7.47;;;5.43;;
71869;SDS011;59739;47.696;11.746;2023-04-25T05:11:23;4.57;;;2.80;;
71869;SDS011;59739;47.696;11.746;2023-04-25T05:14:01;3.92;;;2.95;;
71869;SDS011;59739;47.696;11.746;2023-04-25T05:16:36;3.88;;;3.20;;
71869;SDS011;59739;47.696;11.746;2023-04-25T05:19:24;4.72;;;3.13;;
71869;SDS011;59739;47.696;11.746;2023-04-25T05:22:28;3.22;;;2.72;;
71869;SDS011;59739;47.696;11.746;2023-04-25T05:25:13;3.15;;;2.50;;
71869;SDS011;59739;47.696;11.746;2023-04-25T05:28:12;4.40;;;3.28;;
71869;SDS011;59739;47.696;11.746;2023-04-25T05:30:56;4.93;;;3.30;;
71869;SDS011;59739;47.696;11.746;2023-04-25T05:33:29;4.30;;;2.72;;
71869;SDS011;59739;47.696;11.746;2023-04-25T05:35:55;6.47;;;3.10;;
71869;SDS011;59739;47.696;11.746;2023-04-25T05:38:22;5.40;;;3.58;;
71869;SDS011;59739;47.696;11.746;2023-04-25T05:41:24;5.05;;;3.15;;
71869;SDS011;59739;47.696;11.746;2023-04-25T05:43:58;4.25;;;3.35;;
71869;SDS011;59739;47.696;11.746;2023-04-25T05:46:29;5.05;;;2.70;;
71869;SDS011;59739;47.696;11.746;2023-04-25T05:49:17;7.20;;;3.80;;
71869;SDS011;59739;47.696;11.746;2023-04-25T05:52:07;4.00;;;3.20;;
71869;SDS011;59739;47.696;11.746;2023-04-25T05:54:42;4.82;;;3.13;;
71869;SDS011;59739;47.696;11.746;2023-04-25T05:57:08;6.55;;;3.90;;
71869;SDS011;59739;47.696;11.746;2023-04-25T05:59:43;6.15;;;4.45;;
71869;SDS011;59739;47.696;11.746;2023-04-25T06:02:09;5.80;;;3.03;;
71869;SDS011;59739;47.696;11.746;2023-04-25T06:04:36;4.53;;;3.10;;
71869;SDS011;59739;47.696;11.746;2023-04-25T06:07:02;5.63;;;3.47;;
71869;SDS011;59739;47.696;11.746;2023-04-25T06:09:28;6.07;;;3.30;;
71869;SDS011;59739;47.696;11.746;2023-04-25T06:11:54;8.95;;;3.40;;
71869;SDS011;59739;47.696;11.746;2023-04-25T06:14:21;3.60;;;2.78;;
71869;SDS011;59739;47.696;11.746;2023-04-25T06:16:49;5.65;;;3.70;;
71869;SDS011;59739;47.696;11.746;2023-04-25T06:19:15;5.10;;;2.97;;
71869;SDS011;59739;47.696;11.746;2023-04-25T06:21:42;6.55;;;3.67;;
71869;SDS011;59739;47.696;11.746;2023-04-25T06:24:09;6.40;;;2.80;;
71869;SDS011;59739;47.696;11.746;2023-04-25T06:26:35;6.10;;;3.05;;
71869;SDS011;59739;47.696;11.746;2023-04-25T06:29:02;3.35;;;2.90;;
71869;SDS011;59739;47.696;11.746;2023-04-25T06:31:28;4.40;;;2.67;;
71869;SDS011;59739;47.696;11.746;2023-04-25T06:33:58;4.43;;;2.55;;
71869;SDS011;59739;47.696;11.746;2023-04-25T06:36:26;5.47;;;3.20;;
71869;SDS011;59739;47.696;11.746;2023-04-25T06:38:58;6.82;;;2.53;;
71869;SDS011;59739;47.696;11.746;2023-04-25T06:41:25;4.32;;;2.40;;
71869;SDS011;59739;47.696;11.746;2023-04-25T06:43:52;4.20;;;3.00;;
71869;SDS011;59739;47.696;11.746;2023-04-25T06:46:29;4.20;;;3.10;;
71869;SDS011;59739;47.696;11.746;2023-04-25T06:48:57;6.10;;;3.20;;
71869;SDS011;59739;47.696;11.746;2023-04-25T06:51:23;3.50;;;2.92;;
71869;SDS011;59739;47.696;11.746;2023-04-25T06:53:51;5.50;;;3.42;;
71869;SDS011;59739;47.696;11.746;2023-04-25T06:56:26;7.57;;;2.85;;
71869;SDS011;59739;47.696;11.746;2023-04-25T06:59:05;5.40;;;2.90;;
71869;SDS011;59739;47.696;11.746;2023-04-25T07:01:34;4.35;;;2.80;;
71869;SDS011;59739;47.696;11.746;2023-04-25T07:04:04;3.47;;;2.90;;
71869;SDS011;59739;47.696;11.746;2023-04-25T07:06:33;3.67;;;2.90;;
71869;SDS011;59739;47.696;11.746;2023-04-25T07:08:59;4.78;;;3.17;;
71869;SDS011;59739;47.696;11.746;2023-04-25T07:11:25;5.97;;;3.30;;
71869;SDS011;59739;47.696;11.746;2023-04-25T07:13:51;2.65;;;2.08;;
71869;SDS011;59739;47.696;11.746;2023-04-25T07:16:17;3.13;;;2.30;;
71869;SDS011;59739;47.696;11.746;2023-04-25T07:18:45;3.22;;;2.65;;
71869;SDS011;59739;47.696;11.746;2023-04-25T07:21:11;4.35;;;2.80;;
71869;SDS011;59739;47.696;11.746;2023-04-25T07:23:39;2.42;;;1.63;;
71869;SDS011;59739;47.696;11.746;2023-04-25T07:26:09;4.68;;;2.28;;
71869;SDS011;59739;47.696;11.746;2023-04-25T07:28:48;3.20;;;2.38;;
71869;SDS011;59739;47.696;11.746;2023-04-25T07:31:16;5.70;;;2.70;;
71869;SDS011;59739;47.696;11.746;2023-04-25T07:33:44;4.13;;;2.28;;
71869;SDS011;59739;47.696;11.746;2023-04-25T07:36:11;2.38;;;1.80;;
71869;SDS011;59739;47.696;11.746;2023-04-25T07:38:38;4.15;;;2.30;;
71869;SDS011;59739;47.696;11.746;2023-04-25T07:41:05;4.35;;;2.03;;
71869;SDS011;59739;47.696;11.746;2023-04-25T07:43:31;3.20;;;2.20;;
71869;SDS011;59739;47.696;11.746;2023-04-25T07:45:58;3.03;;;1.80;;
71869;SDS011;59739;47.696;11.746;2023-04-25T07:48:26;3.72;;;1.38;;
71869;SDS011;59739;47.696;11.746;2023-04-25T07:50:52;2.78;;;1.50;;
71869;SDS011;59739;47.696;11.746;2023-04-25T07:53:18;2.42;;;2.17;;
71869;SDS011;59739;47.696;11.746;2023-04-25T07:58:17;3.38;;;1.95;;
71869;SDS011;59739;47.696;11.746;2023-04-25T08:00:48;3.55;;;1.70;;
71869;SDS011;59739;47.696;11.746;2023-04-25T08:03:33;6.68;;;1.88;;
71869;SDS011;59739;47.696;11.746;2023-04-25T08:06:01;3.78;;;1.60;;
71869;SDS011;59739;47.696;11.746;2023-04-25T08:08:31;2.55;;;1.80;;
71869;SDS011;59739;47.696;11.746;2023-04-25T08:10:57;7.68;;;3.17;;
71869;SDS011;59739;47.696;11.746;2023-04-25T08:13:23;6.95;;;2.00;;
71869;SDS011;59739;47.696;11.746;2023-04-25T08:15:50;2.90;;;1.73;;
71869;SDS011;59739;47.696;11.746;2023-04-25T08:18:16;3.25;;;1.80;;
71869;SDS011;59739;47.696;11.746;2023-04-25T08:20:43;2.65;;;1.60;;
71869;SDS011;59739;47.696;11.746;2023-04-25T08:23:10;4.68;;;1.95;;
71869;SDS011;59739;47.696;11.746;2023-04-25T08:25:46;2.47;;;1.65;;
71869;SDS011;59739;47.696;11.746;2023-04-25T08:28:15;4.28;;;1.80;;
71869;SDS011;59739;47.696;11.746;2023-04-25T08:30:41;3.45;;;1.88;;
71869;SDS011;59739;47.696;11.746;2023-04-25T08:33:10;3.22;;;1.90;;
71869;SDS011;59739;47.696;11.746;2023-04-25T08:35:59;2.15;;;1.50;;
71869;SDS011;59739;47.696;11.746;2023-04-25T08:38:26;4.07;;;1.95;;
71869;SDS011;59739;47.696;11.746;2023-04-25T08:40:52;3.10;;;1.60;;
71869;SDS011;59739;47.696;11.746;2023-04-25T08:43:21;4.32;;;1.90;;
71869;SDS011;59739;47.696;11.746;2023-04-25T08:45:50;2.83;;;1.77;;
71869;SDS011;59739;47.696;11.746;2023-04-25T08:48:32;3.10;;;2.00;;
71869;SDS011;59739;47.696;11.746;2023-04-25T08:51:03;3.33;;;2.10;;
71869;SDS011;59739;47.696;11.746;2023-04-25T08:53:32;4.32;;;2.17;;
71869;SDS011;59739;47.696;11.746;2023-04-25T08:56:01;4.30;;;1.77;;
71869;SDS011;59739;47.696;11.746;2023-04-25T08:58:31;4.55;;;1.60;;
71869;SDS011;59739;47.696;11.746;2023-04-25T09:00:57;2.97;;;1.88;;
71869;SDS011;59739;47.696;11.746;2023-04-25T09:03:26;5.03;;;1.70;;
71869;SDS011;59739;47.696;11.746;2023-04-25T09:05:53;3.13;;;1.77;;
71869;SDS011;59739;47.696;11.746;2023-04-25T09:08:20;3.47;;;1.63;;
71869;SDS011;59739;47.696;11.746;2023-04-25T09:10:47;4.43;;;1.75;;
71869;SDS011;59739;47.696;11.746;2023-04-25T09:13:14;3.75;;;1.60;;
71869;SDS011;59739;47.696;11.746;2023-04-25T09:16:15;2.83;;;1.70;;
71869;SDS011;59739;47.696;11.746;2023-04-25T09:19:20;2.70;;;1.77;;
71869;SDS011;59739;47.696;11.746;2023-04-25T09:21:50;4.55;;;2.28;;
71869;SDS011;59739;47.696;11.746;2023-04-25T09:24:33;3.20;;;1.52;;
71869;SDS011;59739;47.696;11.746;2023-04-25T09:27:05;2.47;;;1.83;;
71869;SDS011;59739;47.696;11.746;2023-04-25T09:29:36;2.80;;;1.60;;
71869;SDS011;59739;47.696;11.746;2023-04-25T09:32:29;2.17;;;1.60;;
71869;SDS011;59739;47.696;11.746;2023-04-25T09:34:56;2.67;;;1.52;;
71869;SDS011;59739;47.696;11.746;2023-04-25T09:37:25;1.42;;;1.30;;
71869;SDS011;59739;47.696;11.746;2023-04-25T09:40:12;2.00;;;1.60;;
71869;SDS011;59739;47.696;11.746;2023-04-25T09:42:50;3.75;;;2.10;;
71869;SDS011;59739;47.696;11.746;2023-04-25T09:45:17;4.35;;;1.48;;
71869;SDS011;59739;47.696;11.746;2023-04-25T09:47:43;3.90;;;1.70;;
71869;SDS011;59739;47.696;11.746;2023-04-25T09:50:14;3.25;;;1.75;;
71869;SDS011;59739;47.696;11.746;2023-04-25T09:52:46;6.18;;;1.67;;
71869;SDS011;59739;47.696;11.746;2023-04-25T09:55:36;2.35;;;1.40;;
71869;SDS011;59739;47.696;11.746;2023-04-25T09:58:05;2.45;;;1.38;;
71869;SDS011;59739;47.696;11.746;2023-04-25T10:00:34;2.88;;;1.25;;
71869;SDS011;59739;47.696;11.746;2023-04-25T10:03:13;2.00;;;1.35;;
71869;SDS011;59739;47.696;11.746;2023-04-25T10:05:54;4.30;;;1.75;;
71869;SDS011;59739;47.696;11.746;2023-04-25T10:08:21;3.63;;;1.70;;
71869;SDS011;59739;47.696;11.746;2023-04-25T10:10:48;2.90;;;1.45;;
71869;SDS011;59739;47.696;11.746;2023-04-25T10:13:15;2.85;;;1.30;;
71869;SDS011;59739;47.696;11.746;2023-04-25T10:15:42;2.95;;;1.63;;
71869;SDS011;59739;47.696;11.746;2023-04-25T10:18:08;3.53;;;1.40;;
71869;SDS011;59739;47.696;11.746;2023-04-25T10:20:34;3.42;;;1.30;;
71869;SDS011;59739;47.696;11.746;2023-04-25T10:23:03;2.00;;;1.48;;
71869;SDS011;59739;47.696;11.746;2023-04-25T10:25:38;3.00;;;1.63;;
71869;SDS011;59739;47.696;11.746;2023-04-25T10:28:06;2.15;;;1.35;;
71869;SDS011;59739;47.696;11.746;2023-04-25T10:30:31;2.28;;;1.30;;
71869;SDS011;59739;47.696;11.746;2023-04-25T10:32:58;2.10;;;1.50;;
71869;SDS011;59739;47.696;11.746;2023-04-25T10:38:11;2.15;;;1.17;;
71869;SDS011;59739;47.696;11.746;2023-04-25T10:40:39;2.63;;;1.20;;
71869;SDS011;59739;47.696;11.746;2023-04-25T10:46:16;2.95;;;1.30;;
71869;SDS011;59739;47.696;11.746;2023-04-25T10:48:47;2.70;;;1.70;;
71869;SDS011;59739;47.696;11.746;2023-04-25T10:51:26;1.73;;;1.35;;
71869;SDS011;59739;47.696;11.746;2023-04-25T10:54:06;1.63;;;0.93;;
71869;SDS011;59739;47.696;11.746;2023-04-25T10:56:36;2.30;;;1.33;;
71869;SDS011;59739;47.696;11.746;2023-04-25T11:01:42;2.45;;;1.30;;
71869;SDS011;59739;47.696;11.746;2023-04-25T11:04:20;2.85;;;1.42;;
71869;SDS011;59739;47.696;11.746;2023-04-25T11:09:47;1.85;;;1.50;;
71869;SDS011;59739;47.696;11.746;2023-04-25T11:12:15;3.33;;;1.45;;
71869;SDS011;59739;47.696;11.746;2023-04-25T11:14:42;2.20;;;1.30;;
71869;SDS011;59739;47.696;11.746;2023-04-25T11:17:08;2.25;;;1.27;;
71869;SDS011;59739;47.696;11.746;2023-04-25T11:19:36;1.73;;;1.10;;
71869;SDS011;59739;47.696;11.746;2023-04-25T11:22:02;1.50;;;1.40;;
71869;SDS011;59739;47.696;11.746;2023-04-25T11:24:32;1.65;;;1.30;;
71869;SDS011;59739;47.696;11.746;2023-04-25T11:27:00;2.60;;;1.70;;
71869;SDS011;59739;47.696;11.746;2023-04-25T11:29:28;2.30;;;1.50;;
71869;SDS011;59739;47.696;11.746;2023-04-25T11:31:55;3.33;;;1.27;;
71869;SDS011;59739;47.696;11.746;2023-04-25T11:34:23;1.60;;;1.15;;
71869;SDS011;59739;47.696;11.746;2023-04-25T11:36:52;1.05;;;0.93;;
71869;SDS011;59739;47.696;11.746;2023-04-25T11:39:19;2.28;;;1.60;;
71869;SDS011;59739;47.696;11.746;2023-04-25T11:41:46;2.83;;;1.20;;
71869;SDS011;59739;47.696;11.746;2023-04-25T11:44:15;1.60;;;1.17;;
71869;SDS011;59739;47.696;11.746;2023-04-25T11:46:42;0.93;;;0.80;;
71869;SDS011;59739;47.696;11.746;2023-04-25T11:49:09;1.58;;;1.38;;
71869;SDS011;59739;47.696;11.746;2023-04-25T11:51:43;1.20;;;0.95;;
71869;SDS011;59739;47.696;11.746;2023-04-25T11:54:11;1.60;;;0.68;;
71869;SDS011;59739;47.696;11.746;2023-04-25T11:56:41;2.50;;;1.30;;
71869;SDS011;59739;47.696;11.746;2023-04-25T11:59:08;1.77;;;1.08;;
71869;SDS011;59739;47.696;11.746;2023-04-25T12:01:35;1.25;;;0.90;;
71869;SDS011;59739;47.696;11.746;2023-04-25T12:04:11;1.60;;;0.90;;
71869;SDS011;59739;47.696;11.746;2023-04-25T12:06:39;1.85;;;1.00;;
71869;SDS011;59739;47.696;11.746;2023-04-25T12:09:08;1.25;;;1.15;;
71869;SDS011;59739;47.696;11.746;2023-04-25T12:11:41;2.08;;;1.30;;
71869;SDS011;59739;47.696;11.746;2023-04-25T12:14:25;1.77;;;1.33;;
71869;SDS011;59739;47.696;11.746;2023-04-25T12:16:55;1.30;;;1.17;;
71869;SDS011;59739;47.696;11.746;2023-04-25T12:19:23;1.33;;;1.10;;
71869;SDS011;59739;47.696;11.746;2023-04-25T12:21:50;3.33;;;1.40;;
71869;SDS011;59739;47.696;11.746;2023-04-25T12:24:24;2.42;;;1.60;;
71869;SDS011;59739;47.696;11.746;2023-04-25T12:27:05;2.15;;;1.45;;
71869;SDS011;59739;47.696;11.746;2023-04-25T12:29:33;3.60;;;1.42;;
71869;SDS011;59739;47.696;11.746;2023-04-25T12:31:59;3.00;;;1.02;;
71869;SDS011;59739;47.696;11.746;2023-04-25T12:34:29;0.95;;;0.85;;
71869;SDS011;59739;47.696;11.746;2023-04-25T12:36:56;1.52;;;1.20;;
71869;SDS011;59739;47.696;11.746;2023-04-25T12:39:23;1.10;;;1.00;;
71869;SDS011;59739;47.696;11.746;2023-04-25T12:41:51;1.27;;;1.00;;
71869;SDS011;59739;47.696;11.746;2023-04-25T12:44:18;0.70;;;0.70;;
71869;SDS011;59739;47.696;11.746;2023-04-25T12:46:46;1.08;;;0.90;;
71869;SDS011;59739;47.696;11.746;2023-04-25T12:49:13;1.88;;;0.80;;
71869;SDS011;59739;47.696;11.746;2023-04-25T12:51:40;1.27;;;0.82;;
71869;SDS011;59739;47.696;11.746;2023-04-25T12:54:07;0.73;;;0.73;;
71869;SDS011;59739;47.696;11.746;2023-04-25T12:56:33;0.73;;;0.73;;
71869;SDS011;59739;47.696;11.746;2023-04-25T12:59:01;0.73;;;0.70;;
71869;SDS011;59739;47.696;11.746;2023-04-25T13:01:30;3.25;;;0.82;;
71869;SDS011;59739;47.696;11.746;2023-04-25T13:03:57;1.10;;;1.00;;
71869;SDS011;59739;47.696;11.746;2023-04-25T13:06:22;1.00;;;0.90;;
71869;SDS011;59739;47.696;11.746;2023-04-25T13:08:49;1.98;;;1.05;;
71869;SDS011;59739;47.696;11.746;2023-04-25T13:11:15;1.05;;;0.90;;
71869;SDS011;59739;47.696;11.746;2023-04-25T13:13:41;1.60;;;1.13;;
71869;SDS011;59739;47.696;11.746;2023-04-25T13:16:08;2.40;;;0.82;;
71869;SDS011;59739;47.696;11.746;2023-04-25T13:18:34;1.65;;;0.73;;
71869;SDS011;59739;47.696;11.746;2023-04-25T13:21:00;1.85;;;0.80;;
71869;SDS011;59739;47.696;11.746;2023-04-25T13:23:27;0.70;;;0.50;;
71869;SDS011;59739;47.696;11.746;2023-04-25T13:25:54;0.28;;;0.28;;
71869;SDS011;59739;47.696;11.746;2023-04-25T13:28:23;1.48;;;0.50;;
71869;SDS011;59739;47.696;11.746;2023-04-25T13:30:53;0.32;;;0.32;;
71869;SDS011;59739;47.696;11.746;2023-04-25T13:33:19;1.33;;;0.40;;
71869;SDS011;59739;47.696;11.746;2023-04-25T13:35:46;0.82;;;0.50;;
71869;SDS011;59739;47.696;11.746;2023-04-25T13:38:22;0.45;;;0.40;;
71869;SDS011;59739;47.696;11.746;2023-04-25T13:40:49;0.57;;;0.40;;
71869;SDS011;59739;47.696;11.746;2023-04-25T13:43:20;0.32;;;0.30;;
71869;SDS011;59739;47.696;11.746;2023-04-25T13:45:47;0.68;;;0.60;;
71869;SDS011;59739;47.696;11.746;2023-04-25T13:48:14;0.50;;;0.40;;
71869;SDS011;59739;47.696;11.746;2023-04-25T13:50:41;1.60;;;0.70;;
71869;SDS011;59739;47.696;11.746;2023-04-25T13:53:07;0.40;;;0.40;;
71869;SDS011;59739;47.696;11.746;2023-04-25T13:55:34;0.80;;;0.30;;
71869;SDS011;59739;47.696;11.746;2023-04-25T13:58:02;0.40;;;0.40;;
71869;SDS011;59739;47.696;11.746;2023-04-25T14:00:33;1.05;;;0.35;;
71869;SDS011;59739;47.696;11.746;2023-04-25T14:03:02;0.90;;;0.30;;
71869;SDS011;59739;47.696;11.746;2023-04-25T14:05:30;0.30;;;0.30;;
71869;SDS011;59739;47.696;11.746;2023-04-25T14:07:56;0.20;;;0.20;;
71869;SDS011;59739;47.696;11.746;2023-04-25T14:10:22;0.30;;;0.30;;
71869;SDS011;59739;47.696;11.746;2023-04-25T14:12:48;0.40;;;0.30;;
71869;SDS011;59739;47.696;11.746;2023-04-25T14:15:14;0.20;;;0.20;;
71869;SDS011;59739;47.696;11.746;2023-04-25T14:17:40;0.30;;;0.30;;
71869;SDS011;59739;47.696;11.746;2023-04-25T14:20:06;0.57;;;0.50;;
71869;SDS011;59739;47.696;11.746;2023-04-25T14:22:34;0.60;;;0.30;;
71869;SDS011;59739;47.696;11.746;2023-04-25T14:25:00;0.20;;;0.20;;
71869;SDS011;59739;47.696;11.746;2023-04-25T14:27:26;0.63;;;0.50;;
71869;SDS011;59739;47.696;11.746;2023-04-25T14:29:53;0.93;;;0.85;;
71869;SDS011;59739;47.696;11.746;2023-04-25T14:32:18;0.50;;;0.50;;
71869;SDS011;59739;47.696;11.746;2023-04-25T14:34:45;0.30;;;0.30;;
71869;SDS011;59739;47.696;11.746;2023-04-25T14:37:11;0.40;;;0.32;;
71869;SDS011;59739;47.696;11.746;2023-04-25T14:39:37;0.52;;;0.32;;
71869;SDS011;59739;47.696;11.746;2023-04-25T14:42:03;0.55;;;0.30;;
71869;SDS011;59739;47.696;11.746;2023-04-25T14:44:29;0.20;;;0.20;;
71869;SDS011;59739;47.696;11.746;2023-04-25T14:46:56;1.25;;;0.22;;
71869;SDS011;59739;47.696;11.746;2023-04-25T14:49:22;0.28;;;0.28;;
71869;SDS011;59739;47.696;11.746;2023-04-25T14:51:48;0.20;;;0.20;;
71869;SDS011;59739;47.696;11.746;2023-04-25T14:54:15;0.20;;;0.20;;
71869;SDS011;59739;47.696;11.746;2023-04-25T14:56:41;0.22;;;0.20;;
71869;SDS011;59739;47.696;11.746;2023-04-25T14:59:07;0.20;;;0.20;;
71869;SDS011;59739;47.696;11.746;2023-04-25T15:01:33;0.25;;;0.25;;